Time;durP1;ratioP1;P1;durP2;ratioP2;P2;SDS_P1;SDS_P2;PMS_P1;PMS_P2;Temp;Humidity;BMP_temperature;BMP_pressure;BME280_temperature;BME280_humidity;BME280_pressure;Samples;Min_cycle;Max_cycle;Signal;HPM_P1;HPM_P2
2023/09/13 00:02:06;;;;;;;13.80;11.10;;;;;;;19.66;100.00;101081.19;5109083;28;20406;-50
2023/09/13 00:04:36;;;;;;;14.15;10.60;;;;;;;19.62;100.00;101079.81;5108678;28;20104;-53
2023/09/13 00:07:04;;;;;;;14.30;11.15;;;;;;;19.64;100.00;101080.47;5111383;28;20058;-50
2023/09/13 00:09:34;;;;;;;13.35;11.02;;;;;;;19.60;100.00;101081.78;5107283;28;20059;-49
2023/09/13 00:12:03;;;;;;;14.35;11.18;;;;;;;19.62;100.00;101090.47;5110049;28;20487;-53
2023/09/13 00:14:31;;;;;;;17.33;12.05;;;;;;;19.55;100.00;101090.25;5111940;28;20044;-53
2023/09/13 00:16:59;;;;;;;15.60;12.75;;;;;;;19.38;100.00;101094.59;5111856;28;20075;-49
2023/09/13 00:19:27;;;;;;;16.25;12.10;;;;;;;19.36;100.00;101085.91;5111610;28;20051;-53
2023/09/13 00:21:57;;;;;;;16.17;11.50;;;;;;;19.36;100.00;101087.72;5111508;28;20138;-50
2023/09/13 00:24:26;;;;;;;15.15;11.43;;;;;;;19.28;100.00;101083.16;5109577;28;20047;-52
2023/09/13 00:26:54;;;;;;;15.30;12.10;;;;;;;19.31;100.00;101085.53;5108298;28;20486;-53
2023/09/13 00:29:22;;;;;;;14.95;11.93;;;;;;;19.28;100.00;101082.31;5108775;28;20051;-52
2023/09/13 00:31:50;;;;;;;15.48;11.57;;;;;;;19.28;100.00;101080.50;5110978;28;20048;-54
2023/09/13 00:34:19;;;;;;;14.95;11.65;;;;;;;19.31;100.00;101080.19;5107198;28;20042;-52
2023/09/13 00:36:47;;;;;;;15.20;11.88;;;;;;;19.39;100.00;101077.59;5109123;28;20058;-53
2023/09/13 00:39:17;;;;;;;15.70;10.98;;;;;;;19.45;100.00;101084.16;5109573;28;20043;-50
2023/09/13 00:41:45;;;;;;;13.98;11.32;;;;;;;19.45;100.00;101080.66;5107569;28;20048;-51
2023/09/13 00:44:13;;;;;;;13.65;11.23;;;;;;;19.47;100.00;101082.19;5108605;28;20043;-50
2023/09/13 00:46:42;;;;;;;13.32;10.52;;;;;;;19.39;100.00;101087.44;5111396;28;20134;-52
2023/09/13 00:49:11;;;;;;;14.48;11.30;;;;;;;19.36;100.00;101083.25;5110766;28;20044;-51
2023/09/13 00:51:40;;;;;;;13.95;10.90;;;;;;;19.47;100.00;101078.66;5107124;28;20047;-52
2023/09/13 00:54:09;;;;;;;12.68;10.73;;;;;;;19.34;100.00;101079.88;5107789;28;20122;-49
2023/09/13 00:56:40;;;;;;;15.70;11.75;;;;;;;19.32;100.00;101076.53;5107519;28;20093;-52
2023/09/13 00:59:09;;;;;;;14.52;11.20;;;;;;;19.38;100.00;101078.59;5110957;28;20040;-52
2023/09/13 01:01:39;;;;;;;17.88;12.07;;;;;;;19.41;100.00;101080.13;5108156;28;21110;-53
2023/09/13 01:04:07;;;;;;;14.90;11.38;;;;;;;19.43;100.00;101081.63;5108228;28;20043;-53
2023/09/13 01:06:38;;;;;;;13.85;10.93;;;;;;;19.48;100.00;101081.16;5109963;28;20051;-49
2023/09/13 01:09:07;;;;;;;13.95;11.95;;;;;;;19.54;100.00;101080.56;5108226;28;20052;-52
2023/09/13 01:11:35;;;;;;;15.07;11.43;;;;;;;19.49;100.00;101074.84;5106795;28;20138;-52
2023/09/13 01:14:05;;;;;;;14.57;10.95;;;;;;;19.49;100.00;101082.03;5108205;28;20050;-52
2023/09/13 01:16:45;;;;;;;14.30;11.52;;;;;;;19.39;100.00;101093.59;5107565;28;20430;-51
2023/09/13 01:19:32;;;;;;;14.85;11.65;;;;;;;19.44;100.00;101087.81;5107976;28;20039;-53
2023/09/13 01:22:17;;;;;;;13.98;11.35;;;;;;;19.43;100.00;101086.16;5106924;28;20052;-52
2023/09/13 01:25:10;;;;;;;15.70;11.07;;;;;;;19.38;100.00;101089.25;5107432;28;20040;-53
2023/09/13 01:27:48;;;;;;;14.40;10.30;;;;;;;19.38;100.00;101083.91;5109720;28;20060;-53
2023/09/13 01:30:20;;;;;;;12.93;10.05;;;;;;;19.44;100.00;101087.81;5108370;28;20055;-53
2023/09/13 01:32:49;;;;;;;15.15;10.48;;;;;;;19.30;100.00;101089.16;5099901;28;20050;-53
2023/09/13 01:35:17;;;;;;;13.38;10.50;;;;;;;19.32;100.00;101092.53;5107329;28;20075;-50
2023/09/13 01:37:46;;;;;;;13.20;10.40;;;;;;;19.32;100.00;101092.53;5111651;27;20043;-53
2023/09/13 01:40:15;;;;;;;14.25;11.52;;;;;;;19.37;100.00;101094.75;5110865;28;20050;-53
2023/09/13 01:42:46;;;;;;;15.45;11.80;;;;;;;19.35;100.00;101092.22;5110100;28;20048;-53
2023/09/13 01:45:15;;;;;;;15.18;11.65;;;;;;;19.22;100.00;101083.75;5114484;28;20047;-62
2023/09/13 01:47:47;;;;;;;14.95;11.48;;;;;;;19.20;100.00;101096.41;5114668;28;20532;-62
2023/09/13 01:50:15;;;;;;;15.15;12.20;;;;;;;19.27;100.00;101086.81;5114294;27;20104;-62
2023/09/13 01:52:44;;;;;;;16.20;12.23;;;;;;;19.34;100.00;101093.22;5113767;28;20043;-62
2023/09/13 01:55:13;;;;;;;17.05;13.38;;;;;;;19.22;100.00;101089.94;5113785;28;20051;-62
2023/09/13 01:57:41;;;;;;;17.85;13.43;;;;;;;19.22;100.00;101095.28;5114259;28;20047;-62
2023/09/13 02:00:11;;;;;;;17.17;13.32;;;;;;;19.18;100.00;101093.91;5114336;28;20055;-62
2023/09/13 02:02:39;;;;;;;16.63;12.98;;;;;;;19.14;100.00;101089.00;5114311;28;20071;-62
2023/09/13 02:05:09;;;;;;;16.50;13.27;;;;;;;19.21;100.00;101103.41;5114191;28;20047;-63
2023/09/13 02:07:37;;;;;;;16.17;13.43;;;;;;;19.27;100.00;101104.66;5114357;28;20043;-62
2023/09/13 02:10:06;;;;;;;18.80;14.68;;;;;;;19.28;100.00;101100.97;5109270;27;20505;-62
2023/09/13 02:12:35;;;;;;;15.90;13.43;;;;;;;19.21;100.00;101106.91;5109752;28;20074;-63
2023/09/13 02:15:04;;;;;;;16.98;13.88;;;;;;;19.21;100.00;101100.72;5110191;28;20047;-62
2023/09/13 02:17:32;;;;;;;22.60;13.75;;;;;;;19.15;100.00;101110.16;5109290;28;20047;-62
2023/09/13 02:20:01;;;;;;;16.98;13.18;;;;;;;19.20;100.00;101115.91;5112192;28;20130;-62
2023/09/13 02:22:30;;;;;;;19.88;14.25;;;;;;;19.16;100.00;101119.03;5113847;28;20050;-63
2023/09/13 02:25:03;;;;;;;19.02;14.80;;;;;;;19.16;100.00;101114.53;5113071;28;20764;-64
2023/09/13 02:27:32;;;;;;;23.98;16.65;;;;;;;19.02;100.00;101107.03;5110052;28;20092;-63
2023/09/13 02:30:00;;;;;;;24.20;16.33;;;;;;;19.02;100.00;101112.34;5110077;27;20126;-63
2023/09/13 02:32:28;;;;;;;24.20;16.35;;;;;;;19.06;100.00;101114.59;5108421;28;20047;-63
2023/09/13 02:34:56;;;;;;;24.17;15.50;;;;;;;19.03;100.00;101116.69;5109930;28;20048;-63
2023/09/13 02:37:24;;;;;;;22.33;16.52;;;;;;;19.04;100.00;101113.88;5108556;28;20048;-62
2023/09/13 02:39:54;;;;;;;23.13;16.45;;;;;;;18.98;100.00;101116.31;5109048;28;20049;-62
2023/09/13 02:42:22;;;;;;;21.35;16.33;;;;;;;18.98;100.00;101119.81;5109811;28;20062;-61
2023/09/13 02:44:50;;;;;;;19.33;15.27;;;;;;;19.09;100.00;101122.28;5109642;28;20775;-62
2023/09/13 02:47:18;;;;;;;21.65;17.17;;;;;;;19.17;100.00;101124.22;5112739;28;20040;-61
2023/09/13 02:49:47;;;;;;;22.63;16.50;;;;;;;19.13;100.00;101122.81;5113311;28;20441;-61
2023/09/13 02:52:15;;;;;;;23.52;17.33;;;;;;;19.04;100.00;101116.53;5111465;28;20039;-62
2023/09/13 02:54:44;;;;;;;22.92;16.00;;;;;;;18.97;100.00;101110.16;5108329;28;20054;-62
2023/09/13 02:57:13;;;;;;;22.77;16.83;;;;;;;18.99;100.00;101110.84;5109949;28;20039;-61
2023/09/13 02:59:41;;;;;;;22.13;17.13;;;;;;;19.00;100.00;101117.84;5112416;28;20035;-62
2023/09/13 03:02:10;;;;;;;21.98;16.40;;;;;;;19.06;100.00;101121.72;5113335;28;20448;-64
2023/09/13 03:04:38;;;;;;;23.38;17.48;;;;;;;19.01;100.00;101124.84;5113095;28;20062;-62
2023/09/13 03:07:09;;;;;;;19.48;16.88;;;;;;;19.05;100.00;101125.41;5110391;28;20067;-62
2023/09/13 03:09:37;;;;;;;22.20;17.60;;;;;;;19.03;100.00;101122.03;5107641;28;20112;-62
2023/09/13 03:12:08;;;;;;;26.23;17.63;;;;;;;19.06;100.00;101122.59;5111802;28;20055;-62
2023/09/13 03:14:37;;;;;;;23.83;15.88;;;;;;;19.04;100.00;101119.22;5112831;28;20043;-63
2023/09/13 03:17:06;;;;;;;21.42;18.02;;;;;;;19.04;100.00;101124.53;5111855;28;20104;-62
2023/09/13 03:19:34;;;;;;;24.65;17.98;;;;;;;19.02;100.00;101126.53;5108508;28;20128;-63
2023/09/13 03:22:02;;;;;;;21.60;17.02;;;;;;;19.00;100.00;101127.66;5111176;28;20749;-62
2023/09/13 03:24:31;;;;;;;22.23;17.17;;;;;;;19.01;100.00;101122.19;5112719;27;20394;-63
2023/09/13 03:26:59;;;;;;;20.85;16.23;;;;;;;19.04;100.00;101116.53;5112711;28;20059;-62
2023/09/13 03:29:29;;;;;;;21.48;17.13;;;;;;;19.05;100.00;101112.91;5111732;28;20467;-62
2023/09/13 03:31:59;;;;;;;22.83;17.23;;;;;;;19.02;100.00;101121.19;5108482;28;20112;-62
2023/09/13 03:34:27;;;;;;;21.88;16.88;;;;;;;18.98;100.00;101116.31;5110723;28;20096;-62
2023/09/13 03:36:55;;;;;;;21.92;17.38;;;;;;;18.97;100.00;101115.47;5109101;28;20066;-62
2023/09/13 03:39:25;;;;;;;21.67;17.00;;;;;;;18.92;100.00;101117.72;5107994;28;20119;-63
2023/09/13 03:41:54;;;;;;;20.45;16.92;;;;;;;18.96;100.00;101124.44;5112561;28;20044;-62
2023/09/13 03:44:25;;;;;;;23.05;16.80;;;;;;;19.01;100.00;101124.03;5112414;28;20063;-63
2023/09/13 03:46:53;;;;;;;23.52;16.60;;;;;;;19.04;100.00;101124.53;5112493;28;20063;-62
2023/09/13 03:49:23;;;;;;;21.30;16.00;;;;;;;19.02;100.00;101120.34;5109526;28;20074;-63
2023/09/13 03:51:51;;;;;;;20.95;15.98;;;;;;;19.11;100.00;101129.28;5107141;28;20055;-63
2023/09/13 03:54:19;;;;;;;21.25;15.55;;;;;;;19.03;100.00;101133.56;5111597;28;20100;-62
2023/09/13 03:56:47;;;;;;;21.77;17.42;;;;;;;19.03;100.00;101127.34;5107258;28;20829;-63
2023/09/13 03:59:15;;;;;;;22.38;16.67;;;;;;;18.95;100.00;101128.13;5109244;28;20040;-63
2023/09/13 04:01:44;;;;;;;20.00;16.52;;;;;;;18.97;100.00;101122.63;5110818;28;20047;-63
2023/09/13 04:04:12;;;;;;;22.55;18.38;;;;;;;19.01;100.00;101116.84;5112020;28;20509;-62
2023/09/13 04:06:44;;;;;;;23.13;18.00;;;;;;;18.99;100.00;101116.19;5112094;28;20047;-63
2023/09/13 04:09:12;;;;;;;23.38;18.58;;;;;;;18.97;100.00;101110.16;5111836;28;20134;-63
2023/09/13 04:11:40;;;;;;;26.88;20.50;;;;;;;18.99;100.00;101115.31;5109728;28;20051;-63
2023/09/13 04:14:11;;;;;;;25.65;21.27;;;;;;;18.97;100.00;101107.47;5108138;28;20482;-63
2023/09/13 04:16:39;;;;;;;31.52;25.17;;;;;;;18.98;100.00;101108.31;5107458;28;20537;-63
2023/09/13 04:19:08;;;;;;;31.00;24.40;;;;;;;18.97;100.00;101112.81;5111517;28;20136;-63
2023/09/13 04:21:36;;;;;;;34.40;27.25;;;;;;;18.94;100.00;101105.13;5112057;28;20112;-63
2023/09/13 04:24:07;;;;;;;34.72;25.50;;;;;;;19.00;100.00;101109.84;5110191;28;20506;-63
2023/09/13 04:26:36;;;;;;;34.38;26.90;;;;;;;18.96;100.00;101110.28;5107482;28;20062;-63
2023/09/13 04:29:06;;;;;;;40.45;31.98;;;;;;;18.94;100.00;101107.78;5110684;28;20047;-63
2023/09/13 04:31:37;;;;;;;39.92;29.45;;;;;;;18.95;100.00;101106.81;5107949;28;20698;-63
2023/09/13 04:34:06;;;;;;;42.20;31.65;;;;;;;18.97;100.00;101109.31;5107911;28;20127;-64
2023/09/13 04:36:34;;;;;;;42.67;30.80;;;;;;;18.92;100.00;101109.75;5107177;28;20067;-62
2023/09/13 04:39:02;;;;;;;44.83;33.42;;;;;;;18.95;100.00;101103.28;5109260;28;20413;-62
2023/09/13 04:41:31;;;;;;;47.85;33.38;;;;;;;18.91;100.00;101102.75;5107051;28;20546;-63
2023/09/13 04:44:00;;;;;;;50.20;35.25;;;;;;;18.92;100.00;101093.75;5111077;28;20387;-63
2023/09/13 04:46:30;;;;;;;50.78;35.88;;;;;;;18.91;100.00;101100.91;5107351;28;20046;-63
2023/09/13 04:48:58;;;;;;;53.67;38.47;;;;;;;18.87;100.00;101106.66;5107769;28;20051;-63
2023/09/13 04:51:26;;;;;;;57.53;39.50;;;;;;;18.84;100.00;101106.94;5109222;28;20043;-53
2023/09/13 04:53:55;;;;;;;58.55;39.35;;;;;;;18.88;100.00;101113.69;5111833;28;20125;-55
2023/09/13 04:56:23;;;;;;;60.78;40.65;;;;;;;18.82;100.00;101112.44;5107676;28;20050;-53
2023/09/13 04:58:52;;;;;;;58.90;41.05;;;;;;;18.82;100.00;101112.44;5107528;28;20509;-55
2023/09/13 05:01:21;;;;;;;58.47;39.78;;;;;;;18.77;100.00;101116.53;5108057;28;20430;-54
2023/09/13 05:03:49;;;;;;;58.40;41.47;;;;;;;18.71;100.00;101121.44;5109307;28;20375;-52
2023/09/13 05:06:18;;;;;;;58.25;39.00;;;;;;;18.63;100.00;101123.19;5107228;28;20502;-53
2023/09/13 05:08:46;;;;;;;58.78;39.15;;;;;;;18.65;100.00;101131.84;5108635;28;20054;-52
2023/09/13 05:11:14;;;;;;;56.72;38.42;;;;;;;18.64;100.00;101124.81;5109730;28;20046;-52
2023/09/13 05:13:42;;;;;;;57.70;40.33;;;;;;;18.55;100.00;101130.03;5111734;28;20058;-53
2023/09/13 05:16:12;;;;;;;56.20;39.88;;;;;;;18.54;100.00;101131.06;5115116;28;20047;-53
2023/09/13 05:18:43;;;;;;;56.25;39.40;;;;;;;18.54;100.00;101135.53;5115280;28;20071;-53
2023/09/13 05:21:11;;;;;;;59.30;40.72;;;;;;;18.51;100.00;101133.16;5112414;28;20051;-54
2023/09/13 05:23:39;;;;;;;53.47;38.42;;;;;;;18.50;100.00;101134.13;5109400;28;20039;-53
2023/09/13 05:26:07;;;;;;;56.75;38.17;;;;;;;18.54;100.00;101131.06;5110992;28;20090;-53
2023/09/13 05:28:35;;;;;;;59.97;37.22;;;;;;;18.47;100.00;101132.59;5110729;28;20079;-54
2023/09/13 05:31:04;;;;;;;59.88;39.65;;;;;;;18.37;100.00;101139.78;5112528;27;20122;-51
2023/09/13 05:33:34;;;;;;;58.47;37.13;;;;;;;18.44;100.00;101137.38;5112485;28;20051;-52
2023/09/13 05:36:07;;;;;;;58.55;36.08;;;;;;;18.43;100.00;101141.84;5110722;28;20051;-53
2023/09/13 05:38:35;;;;;;;59.28;38.08;;;;;;;18.42;100.00;101140.19;5114837;28;20048;-52
2023/09/13 05:41:07;;;;;;;55.35;36.63;;;;;;;18.40;100.00;101142.97;5112033;28;20043;-51
2023/09/13 05:43:35;;;;;;;59.93;37.90;;;;;;;18.38;100.00;101142.31;5108915;28;20048;-53
2023/09/13 05:46:04;;;;;;;60.13;38.15;;;;;;;18.42;100.00;101141.03;5110900;28;20060;-53
2023/09/13 05:48:34;;;;;;;59.90;36.33;;;;;;;18.49;100.00;101143.97;5113626;27;20039;-53
2023/09/13 05:51:03;;;;;;;58.80;37.15;;;;;;;18.40;100.00;101142.16;5114558;28;20078;-54
2023/09/13 05:53:32;;;;;;;55.38;37.83;;;;;;;18.44;100.00;101148.03;5114587;28;20048;-53
2023/09/13 05:56:00;;;;;;;59.00;37.13;;;;;;;18.47;100.00;101153.91;5112465;28;20059;-50
2023/09/13 05:58:28;;;;;;;57.95;37.33;;;;;;;18.51;100.00;101159.78;5110265;28;20096;-53
2023/09/13 06:00:57;;;;;;;59.15;37.20;;;;;;;18.40;100.00;101158.97;5110460;28;20067;-54
2023/09/13 06:03:25;;;;;;;62.42;38.30;;;;;;;18.39;100.00;101170.63;5110826;28;20047;-51
2023/09/13 06:05:55;;;;;;;59.15;37.35;;;;;;;18.42;100.00;101177.47;5112713;28;20135;-54
2023/09/13 06:08:23;;;;;;;60.60;36.25;;;;;;;18.43;100.00;101171.16;5108970;28;20731;-53
2023/09/13 06:10:51;;;;;;;52.63;36.80;;;;;;;18.46;100.00;101178.88;5111912;28;20527;-53
2023/09/13 06:13:19;;;;;;;56.55;37.83;;;;;;;18.51;100.00;101181.91;5113932;27;20071;-54
2023/09/13 06:15:48;;;;;;;57.58;36.90;;;;;;;18.57;100.00;101188.53;5114027;28;20131;-54
2023/09/13 06:18:16;;;;;;;51.78;35.70;;;;;;;18.50;100.00;101184.72;5114040;28;20044;-54
2023/09/13 06:20:45;;;;;;;51.55;35.45;;;;;;;18.52;100.00;101193.44;5111523;28;20517;-54
2023/09/13 06:23:33;;;;;;;54.20;34.47;;;;;;;18.55;100.00;101198.47;5109147;27;20051;-55
2023/09/13 06:26:02;;;;;;;55.55;35.35;;;;;;;18.57;100.00;101208.00;5112963;28;20031;-54
2023/09/13 06:28:30;;;;;;;57.95;36.22;;;;;;;18.61;100.00;101207.69;5113318;28;20059;-53
2023/09/13 06:31:00;;;;;;;55.78;35.78;;;;;;;18.60;100.00;101206.88;5109691;28;20118;-54
2023/09/13 06:33:32;;;;;;;;;;;;;;;18.63;100.00;101211.91;5110038;28;20555;-55
2023/09/13 06:36:03;;;;;;;54.78;35.30;;;;;;;18.64;100.00;101218.06;5109595;28;19962;-55
2023/09/13 06:38:36;;;;;;;52.20;36.72;;;;;;;18.64;100.00;101213.59;5108549;28;20124;-56
2023/09/13 06:41:05;;;;;;;50.58;33.65;;;;;;;18.63;100.00;101222.56;5113883;28;20126;-54
2023/09/13 06:43:33;;;;;;;53.92;35.65;;;;;;;18.64;100.00;101218.91;5112165;28;20054;-54
2023/09/13 06:46:02;;;;;;;52.50;35.08;;;;;;;18.64;100.00;101226.03;5113517;28;20043;-54
2023/09/13 06:48:33;;;;;;;51.85;35.47;;;;;;;18.69;100.00;101227.31;5113274;28;20520;-53
2023/09/13 06:51:04;;;;;;;52.80;33.47;;;;;;;18.69;100.00;101232.66;5112569;28;20101;-54
2023/09/13 06:53:37;;;;;;;51.70;34.05;;;;;;;18.67;100.00;101231.94;5112698;28;20561;-55
2023/09/13 06:56:08;;;;;;;;;;;;;;;18.69;100.00;101237.13;5113739;28;20075;-54
2023/09/13 06:58:40;;;;;;;47.53;32.92;;;;;;;18.65;100.00;101251.69;5113192;28;20278;-54
2023/09/13 07:01:15;;;;;;;46.45;31.15;;;;;;;18.63;100.00;101256.34;5110031;28;20039;-53
2023/09/13 07:03:48;;;;;;;45.65;30.60;;;;;;;18.72;100.00;101258.16;5108929;27;20038;-53
2023/09/13 07:06:23;;;;;;;49.30;30.42;;;;;;;18.74;100.00;101266.84;5113167;28;20039;-53
2023/09/13 07:08:52;;;;;;;41.47;28.15;;;;;;;18.52;100.00;101281.31;5113037;27;20405;-53
2023/09/13 07:11:20;;;;;;;14.85;7.68;;;;;;;18.10;100.00;101332.97;5112643;28;20035;-51
2023/09/13 07:13:48;;;;;;;4.55;1.80;;;;;;;17.54;100.00;101335.16;5112925;28;20047;-55
2023/09/13 07:16:17;;;;;;;3.65;1.23;;;;;;;17.12;100.00;101356.47;5107391;28;20043;-54
2023/09/13 07:18:45;;;;;;;2.38;0.90;;;;;;;16.58;100.00;101362.75;5107624;28;20139;-54
2023/09/13 07:21:14;;;;;;;1.75;0.70;;;;;;;16.65;100.00;101361.31;5110755;28;20447;-54
2023/09/13 07:23:42;;;;;;;3.53;0.90;;;;;;;16.57;100.00;101369.91;5106840;28;20051;-56
2023/09/13 07:26:12;;;;;;;2.10;0.90;;;;;;;16.42;100.00;101371.16;5110927;28;20043;-55
2023/09/13 07:28:40;;;;;;;3.58;0.90;;;;;;;16.31;100.00;101374.69;5108259;28;20540;-55
2023/09/13 07:31:09;;;;;;;1.77;0.80;;;;;;;16.29;100.00;101372.16;5108316;28;20078;-53
2023/09/13 07:33:38;;;;;;;2.72;0.73;;;;;;;16.35;100.00;101376.13;5106750;28;20502;-55
2023/09/13 07:36:06;;;;;;;2.20;0.70;;;;;;;16.30;100.00;101378.31;5109807;27;20047;-53
2023/09/13 07:38:34;;;;;;;2.10;0.82;;;;;;;16.42;100.00;101389.75;5112705;28;20498;-55
2023/09/13 07:41:03;;;;;;;3.03;0.82;;;;;;;16.45;100.00;101394.78;5108037;28;20048;-53
2023/09/13 07:43:33;;;;;;;3.30;1.08;;;;;;;16.34;100.00;101403.63;5106098;28;20134;-54
2023/09/13 07:46:04;;;;;;;3.80;0.90;;;;;;;16.35;100.00;101408.81;5108302;28;20047;-62
2023/09/13 07:48:32;;;;;;;4.18;0.80;;;;;;;16.43;100.00;101384.31;5109611;28;20051;-61
2023/09/13 07:51:00;;;;;;;2.63;0.70;;;;;;;16.63;100.00;101409.19;5109378;28;20058;-61
2023/09/13 07:53:28;;;;;;;2.75;0.80;;;;;;;16.64;100.00;101400.28;5106470;28;20510;-62
2023/09/13 07:55:59;;;;;;;2.15;0.70;;;;;;;16.62;100.00;101401.38;5106518;28;20054;-61
2023/09/13 07:58:28;;;;;;;2.63;1.00;;;;;;;16.78;100.00;101398.31;5107330;28;20394;-61
2023/09/13 08:00:57;;;;;;;2.97;0.90;;;;;;;16.94;100.00;101408.53;5107299;28;20050;-62
2023/09/13 08:03:25;;;;;;;1.58;0.70;;;;;;;17.01;100.00;101413.19;5110057;28;20055;-62
2023/09/13 08:05:55;;;;;;;2.90;1.00;;;;;;;16.95;100.00;101429.66;5112240;28;20047;-62
2023/09/13 08:08:24;;;;;;;2.92;0.90;;;;;;;16.90;100.00;101429.19;5111995;28;20449;-61
2023/09/13 08:10:52;;;;;;;1.38;0.68;;;;;;;16.84;100.00;101443.78;5112072;28;20059;-62
2023/09/13 08:13:21;;;;;;;3.25;0.85;;;;;;;16.90;100.00;101445.97;5111166;28;20051;-62
2023/09/13 08:15:49;;;;;;;1.98;0.90;;;;;;;16.83;100.00;101441.25;5111599;28;20047;-60
2023/09/13 08:18:20;;;;;;;2.05;0.82;;;;;;;16.90;100.00;101445.13;5108668;28;20048;-60
2023/09/13 08:20:48;;;;;;;4.10;0.95;;;;;;;16.99;100.00;101457.66;5106765;28;20039;-60
2023/09/13 08:23:16;;;;;;;2.85;0.90;;;;;;;17.17;100.00;101459.75;5106413;28;20043;-60
2023/09/13 08:25:45;;;;;;;2.53;0.80;;;;;;;17.40;100.00;101452.50;5107736;28;20410;-60
2023/09/13 08:28:13;;;;;;;2.67;0.90;;;;;;;17.45;100.00;101460.94;5111638;28;20138;-61
2023/09/13 08:30:42;;;;;;;1.42;0.80;;;;;;;17.44;100.00;101490.28;5111690;28;20123;-60
2023/09/13 08:33:11;;;;;;;3.28;0.70;;;;;;;17.37;100.00;101484.69;5111623;28;20126;-61
2023/09/13 08:35:44;;;;;;;2.70;0.77;;;;;;;17.56;100.00;101489.25;5111935;28;20710;-60
2023/09/13 08:38:12;;;;;;;2.90;0.90;;;;;;;17.88;100.00;101498.97;5110029;28;20047;-62
2023/09/13 08:40:41;;;;;;;2.60;0.70;;;;;;;17.99;100.00;101495.44;5106501;28;20522;-59
2023/09/13 08:43:11;;;;;;;3.42;0.80;;;;;;;18.21;100.00;101497.06;5105450;28;20036;-61
2023/09/13 08:45:41;;;;;;;2.45;0.80;;;;;;;18.00;100.00;101508.59;5109368;28;20056;-62
2023/09/13 08:48:10;;;;;;;2.65;1.10;;;;;;;18.10;100.00;101518.44;5113447;28;20051;-60
2023/09/13 08:50:40;;;;;;;2.13;0.70;;;;;;;18.20;100.00;101519.31;5113098;28;20415;-62
2023/09/13 08:53:12;;;;;;;1.33;0.63;;;;;;;18.31;100.00;101532.56;5110558;28;20043;-61
2023/09/13 08:55:42;;;;;;;3.00;0.80;;;;;;;18.05;100.00;101537.47;5113919;28;20386;-60
2023/09/13 08:58:10;;;;;;;3.10;1.05;;;;;;;18.10;100.00;101540.56;5114389;28;20040;-62
2023/09/13 09:00:42;;;;;;;3.85;0.88;;;;;;;18.26;100.00;101540.09;5099004;28;20146;-62
2023/09/13 09:03:12;;;;;;;3.03;0.98;;;;;;;18.31;100.00;101547.66;5100054;28;20039;-61
2023/09/13 09:05:41;;;;;;;1.77;1.02;;;;;;;18.42;100.00;101556.41;5109363;28;20511;-61
2023/09/13 09:08:11;;;;;;;3.50;1.10;;;;;;;18.66;100.00;101557.88;5105753;28;20398;-61
2023/09/13 09:10:42;;;;;;;3.28;0.90;;;;;;;18.91;100.00;101567.25;5107180;28;20047;-62
2023/09/13 09:13:11;;;;;;;4.22;1.00;;;;;;;19.22;100.00;101563.63;5106543;28;20449;-61
2023/09/13 09:15:44;;;;;;;4.88;1.40;;;;;;;19.31;100.00;101567.31;5108838;28;20047;-58
2023/09/13 09:18:13;;;;;;;2.30;0.95;;;;;;;19.39;100.00;101565.63;5108056;28;20148;-61
2023/09/13 09:20:44;;;;;;;2.42;0.88;;;;;;;19.56;100.00;101563.22;5107434;28;20044;-60
2023/09/13 09:23:15;;;;;;;3.10;0.98;;;;;;;19.53;100.00;101587.53;5102316;28;20041;-61
2023/09/13 09:25:45;;;;;;;3.78;1.10;;;;;;;19.80;100.00;101575.28;5107607;28;20501;-61
2023/09/13 09:28:14;;;;;;;2.38;0.95;;;;;;;19.68;100.00;101567.41;5107217;28;20490;-59
2023/09/13 09:30:45;;;;;;;4.35;0.85;;;;;;;19.98;100.00;101568.25;5107002;27;20043;-59
2023/09/13 09:33:14;;;;;;;4.32;0.98;;;;;;;20.29;100.00;101572.50;5100194;28;20152;-59
2023/09/13 09:35:54;;;;;;;2.90;1.00;;;;;;;20.38;100.00;101575.16;5105404;28;20063;-61
2023/09/13 09:38:25;;;;;;;5.25;1.30;;;;;;;20.60;100.00;101567.72;5105426;28;20715;-61
2023/09/13 09:40:57;;;;;;;2.13;0.82;;;;;;;20.97;100.00;101557.97;5104753;28;20518;-61
2023/09/13 09:43:25;;;;;;;3.03;1.08;;;;;;;21.05;100.00;101564.28;5108629;28;20044;-59
2023/09/13 09:45:54;;;;;;;3.17;1.25;;;;;;;21.14;100.00;101564.34;5109415;28;20035;-60
2023/09/13 09:48:22;;;;;;;2.13;0.80;;;;;;;21.39;100.00;101560.91;5109276;28;20056;-60
2023/09/13 09:50:54;;;;;;;3.10;1.00;;;;;;;21.66;100.00;101577.88;5105036;28;20108;-59
2023/09/13 09:53:25;;;;;;;3.78;0.98;;;;;;;21.38;100.00;101582.47;5100078;28;20363;-60
2023/09/13 09:55:54;;;;;;;5.18;1.00;;;;;;;21.78;100.00;101597.22;5098233;27;20122;-59
2023/09/13 09:58:23;;;;;;;5.70;1.08;;;;;;;21.83;100.00;101604.75;5105451;28;20423;-61
2023/09/13 10:00:53;;;;;;;1.25;0.65;;;;;;;21.67;100.00;101606.31;5109276;28;20046;-59
2023/09/13 10:03:23;;;;;;;3.65;1.00;;;;;;;21.67;100.00;101616.19;5106959;28;20070;-60
2023/09/13 10:05:53;;;;;;;2.88;1.00;;;;;;;22.15;100.00;101627.44;5103334;28;20043;-60
2023/09/13 10:08:39;;;;;;;1.55;0.80;;;;;;;21.78;100.00;101624.81;5097238;28;20390;-59
2023/09/13 10:11:11;;;;;;;2.65;1.00;;;;;;;22.03;100.00;101630.38;5104314;28;20046;-60
2023/09/13 10:13:40;;;;;;;4.47;0.82;;;;;;;21.97;100.00;101624.81;5103449;28;20141;-59
2023/09/13 10:16:11;;;;;;;2.75;0.73;;;;;;;22.31;100.00;101624.84;5102600;28;20138;-60
2023/09/13 10:18:46;;;;;;;2.38;0.75;;;;;;;22.31;100.00;101627.53;5104036;28;20056;-60
2023/09/13 10:21:20;;;;;;;7.43;1.20;;;;;;;22.27;100.00;101634.22;5105533;28;20097;-61
2023/09/13 10:23:54;;;;;;;4.10;1.00;;;;;;;22.19;100.00;101639.50;5108181;28;20050;-61
2023/09/13 10:26:25;;;;;;;2.67;1.00;;;;;;;22.02;100.00;101631.38;5112641;28;20044;-61
2023/09/13 10:28:57;;;;;;;4.82;1.17;;;;;;;21.94;100.00;101636.66;5110078;27;20044;-61
2023/09/13 10:31:29;;;;;;;3.97;1.10;;;;;;;22.18;100.00;101637.81;5110855;28;20062;-61
2023/09/13 10:34:04;;;;;;;3.73;1.43;;;;;;;22.03;100.00;101643.78;5109048;27;20680;-60
2023/09/13 10:36:38;;;;;;;4.00;1.50;;;;;;;21.70;100.00;101653.34;5113638;28;20071;-62
2023/09/13 10:39:13;;;;;;;5.70;1.50;;;;;;;21.75;100.00;101641.19;5113105;28;20063;-61
2023/09/13 10:41:50;;;;;;;5.45;1.63;;;;;;;22.22;100.00;101653.44;5110353;28;20429;-61
2023/09/13 10:44:21;;;;;;;5.28;1.50;;;;;;;22.29;100.00;101649.13;5110870;27;20051;-62
2023/09/13 10:46:51;;;;;;;6.03;1.77;;;;;;;22.17;100.00;101663.78;5127314;27;20051;-62
2023/09/13 10:49:19;;;;;;;4.88;1.73;;;;;;;22.10;100.00;101666.25;5107881;28;20036;-60
2023/09/13 10:51:49;;;;;;;7.03;1.67;;;;;;;22.21;100.00;101661.59;5095398;28;20569;-61
2023/09/13 10:54:20;;;;;;;7.05;1.75;;;;;;;22.11;100.00;101670.59;5102313;28;21393;-61
2023/09/13 10:56:49;;;;;;;5.35;2.13;;;;;;;21.75;100.00;101676.00;5103004;28;20450;-62
2023/09/13 10:59:19;;;;;;;5.80;1.45;;;;;;;21.61;100.00;101681.91;5106357;28;20100;-60
2023/09/13 11:01:48;;;;;;;5.95;1.85;;;;;;;21.83;100.00;101685.06;5105934;28;20109;-61
2023/09/13 11:04:17;;;;;;;6.43;1.70;;;;;;;21.80;100.00;101691.59;5106946;28;20036;-60
2023/09/13 11:06:46;;;;;;;4.65;1.40;;;;;;;21.77;100.00;101698.09;5103513;28;20048;-60
2023/09/13 11:09:16;;;;;;;5.78;1.50;;;;;;;21.65;100.00;101696.66;5102470;28;20822;-60
2023/09/13 11:11:49;;;;;;;5.40;1.50;;;;;;;21.81;100.00;101697.78;5103640;28;20126;-61
2023/09/13 11:14:23;;;;;;;7.20;1.75;;;;;;;21.49;100.00;101707.13;5107108;28;20073;-60
2023/09/13 11:16:52;;;;;;;6.88;1.50;;;;;;;21.72;100.00;101705.75;5106668;28;20047;-60
2023/09/13 11:19:26;;;;;;;4.82;1.60;;;;;;;21.51;100.00;101718.53;5107845;27;20616;-60